createdAt,value
2022-09-20T00:01:38.063Z,101360.06
2022-09-20T00:04:07.232Z,101360.50
2022-09-20T00:06:40.463Z,101362.06
2022-09-20T00:09:11.051Z,101366.66
2022-09-20T00:11:40.929Z,101369.13
2022-09-20T00:14:09.591Z,101359.09
2022-09-20T00:16:41.525Z,101362.06
2022-09-20T00:19:17.703Z,101355.47
2022-09-20T00:21:45.469Z,101366.53
2022-09-20T00:24:13.531Z,101364.91
2022-09-20T00:26:41.035Z,101361.84
2022-09-20T00:29:09.996Z,101367.03
2022-09-20T00:31:45.141Z,101365.38
2022-09-20T00:34:33.875Z,101368.94
2022-09-20T00:37:01.486Z,101360.81
2022-09-20T00:39:35.120Z,101374.66
2022-09-20T00:42:02.657Z,101362.59
2022-09-20T00:44:48.818Z,101365.50
2022-09-20T00:47:24.596Z,101363.75
2022-09-20T00:49:56.279Z,101369.53
2022-09-20T00:52:24.679Z,101355.28
2022-09-20T00:54:53.318Z,101363.53
2022-09-20T00:57:21.102Z,101365.31
2022-09-20T00:59:53.197Z,101363.66
2022-09-20T01:02:31.195Z,101368.56
2022-09-20T01:05:00.796Z,101366.13
2022-09-20T01:07:30.590Z,101356.13
2022-09-20T01:09:58.703Z,101361.28
2022-09-20T01:12:30.762Z,101364.59
2022-09-20T01:15:00.955Z,101363.06
2022-09-20T01:17:33.351Z,101369.53
2022-09-20T01:20:07.395Z,101360.81
2022-09-20T01:23:06.223Z,101362.59
2022-09-20T01:25:59.791Z,101360.97
2022-09-20T01:28:29.661Z,101359.63
2022-09-20T01:31:24.961Z,101363.66
2022-09-20T01:34:04.604Z,101357.06
2022-09-20T01:36:40.061Z,101358.34
2022-09-20T01:39:42.633Z,101351.66
2022-09-20T01:42:13.828Z,101352.00
2022-09-20T01:45:19.430Z,101352.59
2022-09-20T01:48:18.358Z,101349.66
2022-09-20T01:50:58.354Z,101344.69
2022-09-20T01:53:59.723Z,101354.94
2022-09-20T01:56:42.644Z,101359.75
2022-09-20T01:59:56.240Z,101358.47
2022-09-20T02:02:54.337Z,101358.81
2022-09-20T02:05:55.917Z,101372.94
2022-09-20T02:08:30.084Z,101371.75
2022-09-20T02:11:13.616Z,101373.34
2022-09-20T02:13:41.515Z,101371.75
2022-09-20T02:16:34.218Z,101368.97
2022-09-20T02:19:20.648Z,101366.38
2022-09-20T02:21:54.571Z,101372.53
2022-09-20T02:24:33.843Z,101363.50
2022-09-20T02:27:27.441Z,101363.63
2022-09-20T02:30:30.029Z,101371.66
2022-09-20T02:33:16.030Z,101366.00
2022-09-20T02:36:18.260Z,101375.53
2022-09-20T02:39:00.404Z,101374.94
2022-09-20T02:41:32.220Z,101380.09
2022-09-20T02:44:24.217Z,101375.63
2022-09-20T02:46:59.672Z,101377.50
2022-09-20T02:49:35.773Z,101376.81
2022-09-20T02:53:02.121Z,101379.03
2022-09-20T02:55:55.947Z,101374.00
2022-09-20T02:59:01.259Z,101380.22
2022-09-20T03:01:38.367Z,101384.69
2022-09-20T03:04:20.415Z,101385.50
2022-09-20T03:07:26.887Z,101378.13
2022-09-20T03:10:14.409Z,101379.66
2022-09-20T03:13:19.500Z,101381.50
2022-09-20T03:15:57.960Z,101378.00
2022-09-20T03:19:02.777Z,101374.81
2022-09-20T03:21:52.579Z,101382.34
2022-09-20T03:24:34.929Z,101377.38
2022-09-20T03:27:15.446Z,101376.34
2022-09-20T03:30:20.770Z,101381.38
2022-09-20T03:32:54.687Z,101374.72
2022-09-20T03:36:05.257Z,101373.53
2022-09-20T03:38:49.728Z,101374.84
2022-09-20T03:41:36.594Z,101376.00
2022-09-20T03:45:12.097Z,101380.25
2022-09-20T03:47:52.050Z,101385.09
2022-09-20T03:51:05.777Z,101383.75
2022-09-20T03:53:40.337Z,101386.47
2022-09-20T03:56:20.165Z,101375.88
2022-09-20T03:59:00.789Z,101380.69
2022-09-20T04:01:59.254Z,101384.78
2022-09-20T04:04:58.123Z,101388.88
2022-09-20T04:07:44.750Z,101396.66
2022-09-20T04:10:49.594Z,101391.72
2022-09-20T04:13:37.615Z,101395.22
2022-09-20T04:16:41.141Z,101395.31
2022-09-20T04:19:30.785Z,101399.53
2022-09-20T04:22:03.620Z,101400.63
2022-09-20T04:24:31.588Z,101391.25
2022-09-20T04:27:13.328Z,101394.66
2022-09-20T04:29:56.433Z,101397.84
2022-09-20T04:32:41.570Z,101397.22
2022-09-20T04:35:43.212Z,101395.00
2022-09-20T04:38:17.278Z,101396.28
2022-09-20T04:41:00.500Z,101402.69
2022-09-20T04:44:12.301Z,101398.47
2022-09-20T04:47:06.565Z,101388.13
2022-09-20T04:49:58.904Z,101391.19
2022-09-20T04:52:57.329Z,101396.66
2022-09-20T04:55:34.310Z,101393.75
2022-09-20T04:58:27.822Z,101390.13
2022-09-20T05:01:18.433Z,101397.22
2022-09-20T05:04:15.243Z,101403.72
2022-09-20T05:07:10.207Z,101399.84
2022-09-20T05:09:37.682Z,101398.66
2022-09-20T05:12:24.542Z,101400.78
2022-09-20T05:15:03.134Z,101403.72
2022-09-20T05:17:45.165Z,101397.38
2022-09-20T05:20:34.729Z,101398.09
2022-09-20T05:23:08.413Z,101402.06
2022-09-20T05:25:44.354Z,101403.38
2022-09-20T05:28:32.291Z,101399.41
2022-09-20T05:31:14.045Z,101398.13
2022-09-20T05:34:03.611Z,101405.03
2022-09-20T05:36:57.790Z,101408.31
2022-09-20T05:39:47.361Z,101403.88
2022-09-20T05:42:45.620Z,101407.47
2022-09-20T05:45:32.222Z,101406.72
2022-09-20T05:48:02.635Z,101415.41
2022-09-20T05:50:45.716Z,101418.34
2022-09-20T05:53:25.520Z,101419.94
2022-09-20T05:56:23.515Z,101423.91
2022-09-20T05:59:17.750Z,101419.53
2022-09-20T06:02:19.502Z,101424.88
2022-09-20T06:05:15.402Z,101420.66
2022-09-20T06:07:48.640Z,101416.66
2022-09-20T06:10:40.112Z,101416.88
2022-09-20T06:13:23.299Z,101417.63
2022-09-20T06:16:02.453Z,101419.38
2022-09-20T06:18:35.762Z,101424.22
2022-09-20T06:21:36.671Z,101423.75
2022-09-20T06:24:13.925Z,101425.41
2022-09-20T06:26:44.883Z,101429.03
2022-09-20T06:29:18.819Z,101425.06
2022-09-20T06:31:46.574Z,101424.81
2022-09-20T06:34:16.496Z,101434.47
2022-09-20T06:37:09.446Z,101430.47
2022-09-20T06:40:13.626Z,101440.22
2022-09-20T06:42:49.910Z,101431.75
2022-09-20T06:45:17.443Z,101434.13
2022-09-20T06:47:45.103Z,101429.88
2022-09-20T06:50:17.410Z,101439.19
2022-09-20T06:52:47.091Z,101438.00
2022-09-20T06:55:29.334Z,101436.84
2022-09-20T06:57:57.688Z,101440.03
2022-09-20T07:00:25.321Z,101436.72
2022-09-20T07:02:52.790Z,101442.75
2022-09-20T07:05:22.948Z,101442.28
2022-09-20T07:07:50.585Z,101440.63
2022-09-20T07:10:18.253Z,101442.16
2022-09-20T07:12:46.626Z,101448.03
2022-09-20T07:15:15.218Z,101448.84
2022-09-20T07:17:46.424Z,101453.53
2022-09-20T07:20:15.062Z,101446.94
2022-09-20T07:22:45.115Z,101446.09
2022-09-20T07:25:12.592Z,101446.31
2022-09-20T07:27:40.114Z,101445.81
2022-09-20T07:30:09.331Z,101442.50
2022-09-20T07:32:36.757Z,101443.91
2022-09-20T07:35:04.947Z,101445.16
2022-09-20T07:37:36.964Z,101442.16
2022-09-20T07:40:05.668Z,101454.59
2022-09-20T07:42:33.092Z,101456.50
2022-09-20T07:45:02.440Z,101457.53
2022-09-20T07:47:35.687Z,101460.09
2022-09-20T07:50:04.487Z,101461.38
2022-09-20T07:52:32.146Z,101465.28
2022-09-20T07:54:59.876Z,101455.31
2022-09-20T07:57:37.590Z,101456.16
2022-09-20T08:00:07.321Z,101445.03
2022-09-20T08:02:40.126Z,101456.53
2022-09-20T08:05:08.074Z,101458.03
2022-09-20T08:07:35.828Z,101455.22
2022-09-20T08:10:04.533Z,101453.84
2022-09-20T08:15:20.625Z,101469.56
2022-09-20T08:17:48.607Z,101475.63
2022-09-20T08:20:16.097Z,101466.44
2022-09-20T08:22:43.736Z,101474.56
2022-09-20T08:25:12.425Z,101480.00
2022-09-20T08:27:39.983Z,101478.75
2022-09-20T08:30:08.354Z,101493.38
2022-09-20T08:32:40.004Z,101497.91
2022-09-20T08:35:07.688Z,101495.84
2022-09-20T08:37:35.752Z,101488.88
2022-09-20T08:40:03.685Z,101494.94
2022-09-20T08:42:44.444Z,101499.28
2022-09-20T08:45:34.546Z,101500.75
2022-09-20T08:48:15.727Z,101498.72
2022-09-20T08:50:44.282Z,101500.69
2022-09-20T08:53:20.924Z,101496.00
2022-09-20T08:55:49.425Z,101506.47
2022-09-20T08:58:17.389Z,101502.59
2022-09-20T09:00:47.308Z,101503.47
2022-09-20T09:03:18.215Z,101503.50
2022-09-20T09:05:52.939Z,101505.66
2022-09-20T09:08:37.566Z,101504.91
2022-09-20T09:11:12.866Z,101516.03
2022-09-20T09:13:40.259Z,101523.06
2022-09-20T09:16:15.502Z,101522.13
2022-09-20T09:18:46.693Z,101523.44
2022-09-20T09:21:29.297Z,101523.44
2022-09-20T09:24:09.784Z,101519.84
2022-09-20T09:26:40.405Z,101513.69
2022-09-20T09:29:24.885Z,101515.19
2022-09-20T09:31:57.076Z,101521.03
2022-09-20T09:34:33.894Z,101522.72
2022-09-20T09:37:01.917Z,101522.44
2022-09-20T09:39:32.319Z,101516.66
2022-09-20T09:42:25.086Z,101512.56
2022-09-20T09:44:53.766Z,101518.25
2022-09-20T09:47:28.801Z,101517.25
2022-09-20T09:50:01.862Z,101520.00
2022-09-20T09:52:33.673Z,101523.78
2022-09-20T09:55:05.694Z,101519.28
2022-09-20T09:57:57.263Z,101530.69
2022-09-20T10:00:27.454Z,101524.31
2022-09-20T10:03:13.012Z,101531.84
2022-09-20T10:06:10.337Z,101529.81
2022-09-20T10:09:02.474Z,101523.78
2022-09-20T10:11:38.785Z,101530.28
2022-09-20T10:14:49.753Z,101522.94
2022-09-20T10:17:35.219Z,101512.91
2022-09-20T10:20:11.257Z,101510.13
2022-09-20T10:23:21.458Z,101517.75
2022-09-20T10:25:55.273Z,101519.19
2022-09-20T10:29:08.589Z,101519.47
2022-09-20T10:32:15.394Z,101515.94
2022-09-20T10:34:57.524Z,101517.59
2022-09-20T10:37:40.158Z,101522.25
2022-09-20T10:40:16.740Z,101521.50
2022-09-20T10:43:15.774Z,101523.41
2022-09-20T10:46:31.306Z,101525.31
2022-09-20T10:49:18.535Z,101523.03
2022-09-20T10:52:31.868Z,101528.25
2022-09-20T10:55:22.744Z,101521.78
2022-09-20T10:58:32.875Z,101526.38
2022-09-20T11:01:25.806Z,101522.63
2022-09-20T11:04:30.516Z,101514.94
2022-09-20T11:07:25.726Z,101520.66
2022-09-20T11:10:01.982Z,101528.28
2022-09-20T11:12:42.849Z,101516.81
2022-09-20T11:15:21.978Z,101523.63
2022-09-20T11:18:03.557Z,101515.75
2022-09-20T11:20:44.387Z,101511.09
2022-09-20T11:23:21.677Z,101508.91
2022-09-20T11:25:57.162Z,101511.63
2022-09-20T11:28:49.400Z,101511.41
2022-09-20T11:31:25.290Z,101524.72
2022-09-20T11:34:04.280Z,101515.16
2022-09-20T11:36:45.928Z,101516.06
2022-09-20T11:39:38.212Z,101507.72
2022-09-20T11:42:07.646Z,101504.63
2022-09-20T11:44:42.061Z,101507.22
2022-09-20T11:47:36.533Z,101502.28
2022-09-20T11:50:29.503Z,101504.22
2022-09-20T11:53:16.468Z,101489.44
2022-09-20T11:55:59.442Z,101497.66
2022-09-20T11:58:28.248Z,101492.78
2022-09-20T12:01:01.018Z,101493.56
2022-09-20T12:03:40.453Z,101487.34
2022-09-20T12:06:09.806Z,101488.53
2022-09-20T12:08:41.423Z,101486.88
2022-09-20T12:11:15.195Z,101487.41
2022-09-20T12:13:55.987Z,101485.44
2022-09-20T12:16:46.377Z,101480.34
2022-09-20T12:19:15.276Z,101488.53
2022-09-20T12:22:32.842Z,101479.25
2022-09-20T12:25:51.612Z,101474.81
2022-09-20T12:28:34.723Z,101468.25
2022-09-20T12:31:20.646Z,101467.72
2022-09-20T12:34:15.838Z,101463.72
2022-09-20T12:36:55.358Z,101450.56
2022-09-20T12:39:32.296Z,101458.97
2022-09-20T12:42:11.871Z,101448.66
2022-09-20T12:44:41.960Z,101444.34
2022-09-20T12:47:11.710Z,101450.09
2022-09-20T12:50:06.691Z,101456.84
2022-09-20T12:52:58.387Z,101438.72
2022-09-20T12:55:40.433Z,101439.03
2022-09-20T12:58:17.579Z,101430.94
2022-09-20T13:00:47.542Z,101428.94
2022-09-20T13:03:41.450Z,101436.97
2022-09-20T13:06:12.453Z,101428.03
2022-09-20T13:08:48.515Z,101439.09
2022-09-20T13:11:20.514Z,101427.09
2022-09-20T13:13:51.086Z,101431.22
2022-09-20T13:16:40.125Z,101431.31
2022-09-20T13:19:16.902Z,101425.59
2022-09-20T13:22:27.832Z,101421.84
2022-09-20T13:25:03.296Z,101421.03
2022-09-20T13:27:41.438Z,101422.63
2022-09-20T13:30:20.925Z,101422.06
2022-09-20T13:32:55.652Z,101407.63
2022-09-20T13:35:32.397Z,101407.06
2022-09-20T13:38:05.933Z,101404.91
2022-09-20T13:40:38.876Z,101407.72
2022-09-20T13:43:25.010Z,101405.53
2022-09-20T13:45:58.482Z,101402.22
2022-09-20T13:48:30.452Z,101393.00
2022-09-20T13:50:58.849Z,101396.84
2022-09-20T13:53:46.593Z,101396.28
2022-09-20T13:56:41.180Z,101385.09
2022-09-20T13:59:19.399Z,101391.94
2022-09-20T14:01:56.679Z,101390.13
2022-09-20T14:04:27.029Z,101384.66
2022-09-20T14:06:58.030Z,101387.59
2022-09-20T14:09:27.222Z,101387.56
2022-09-20T14:12:01.652Z,101385.41
2022-09-20T14:14:30.988Z,101381.88
2022-09-20T14:17:02.081Z,101389.78
2022-09-20T14:19:37.464Z,101379.41
2022-09-20T14:22:07.332Z,101383.41
2022-09-20T14:24:37.562Z,101374.72
2022-09-20T14:27:22.682Z,101384.56
2022-09-20T14:29:52.031Z,101383.50
2022-09-20T14:32:19.355Z,101387.22
2022-09-20T14:34:59.279Z,101380.72
2022-09-20T14:37:41.923Z,101388.25
2022-09-20T14:40:29.480Z,101373.56
2022-09-20T14:43:00.683Z,101381.75
2022-09-20T14:45:33.498Z,101377.94
2022-09-20T14:48:26.977Z,101386.38
2022-09-20T14:51:19.148Z,101380.94
2022-09-20T14:53:47.038Z,101387.72
2022-09-20T14:56:28.022Z,101385.19
2022-09-20T14:59:17.493Z,101399.03
2022-09-20T15:01:57.436Z,101392.25
2022-09-20T15:04:27.541Z,101393.00
2022-09-20T15:06:56.871Z,101386.22
2022-09-20T15:09:27.544Z,101383.47
2022-09-20T15:12:17.776Z,101388.97
2022-09-20T15:14:45.940Z,101375.94
2022-09-20T15:17:21.648Z,101380.81
2022-09-20T15:19:51.479Z,101389.47
2022-09-20T15:22:18.760Z,101383.69
2022-09-20T15:24:46.681Z,101386.34
2022-09-20T15:27:14.957Z,101380.41
2022-09-20T15:29:42.098Z,101381.44
2022-09-20T15:32:12.125Z,101380.38
2022-09-20T15:34:39.194Z,101384.03
2022-09-20T15:37:16.683Z,101374.78
2022-09-20T15:39:44.220Z,101376.47
2022-09-20T15:42:11.708Z,101370.19
2022-09-20T15:44:39.098Z,101370.78
2022-09-20T15:47:08.923Z,101367.47
2022-09-20T15:49:38.275Z,101373.75
2022-09-20T15:52:05.948Z,101365.59
2022-09-20T15:54:33.556Z,101368.31
2022-09-20T15:57:01.023Z,101361.22
2022-09-20T15:59:29.733Z,101372.06
2022-09-20T16:01:57.501Z,101371.13
2022-09-20T16:04:27.286Z,101368.94
2022-09-20T16:06:54.728Z,101371.66
2022-09-20T16:09:22.321Z,101374.44
2022-09-20T16:11:50.062Z,101385.00
2022-09-20T16:14:20.553Z,101373.31
2022-09-20T16:16:48.167Z,101377.13
2022-09-20T16:19:20.988Z,101377.13
2022-09-20T16:21:57.637Z,101374.09
2022-09-20T16:24:34.276Z,101373.75
2022-09-20T16:27:04.090Z,101371.59
2022-09-20T16:29:32.499Z,101375.19
2022-09-20T16:32:03.687Z,101375.19
2022-09-20T16:34:35.408Z,101374.13
2022-09-20T16:37:04.425Z,101376.47
2022-09-20T16:39:32.453Z,101383.53
2022-09-20T16:42:05.210Z,101382.72
2022-09-20T16:44:34.999Z,101384.09
2022-09-20T16:47:03.817Z,101381.13
2022-09-20T16:49:33.405Z,101387.94
2022-09-20T16:52:01.189Z,101393.94
2022-09-20T16:54:31.749Z,101387.69
2022-09-20T16:56:59.757Z,101389.69
2022-09-20T16:59:27.217Z,101391.88
2022-09-20T17:01:55.480Z,101394.03
2022-09-20T17:04:23.677Z,101397.28
2022-09-20T17:06:54.708Z,101404.56
2022-09-20T17:09:22.338Z,101402.00
2022-09-20T17:11:51.821Z,101406.63
2022-09-20T17:14:21.537Z,101412.31
2022-09-20T17:16:49.704Z,101405.25
2022-09-20T17:19:24.281Z,101411.75
2022-09-20T17:21:55.941Z,101408.66
2022-09-20T17:24:25.536Z,101415.94
2022-09-20T17:26:54.075Z,101420.75
2022-09-20T17:29:21.839Z,101421.81
2022-09-20T17:31:58.109Z,101425.88
2022-09-20T17:34:26.913Z,101424.22
2022-09-20T17:36:55.702Z,101423.09
2022-09-20T17:39:24.215Z,101423.59
2022-09-20T17:41:52.377Z,101424.63
2022-09-20T17:44:20.240Z,101423.53
2022-09-20T17:46:57.550Z,101425.19
2022-09-20T17:49:28.047Z,101428.25
2022-09-20T17:51:56.513Z,101429.97
2022-09-20T17:54:24.932Z,101431.06
2022-09-20T17:56:56.487Z,101432.69
2022-09-20T17:59:25.400Z,101435.97
2022-09-20T18:01:54.802Z,101435.41
2022-09-20T18:04:24.814Z,101438.94
2022-09-20T18:06:54.068Z,101442.75
2022-09-20T18:09:25.535Z,101451.16
2022-09-20T18:11:55.335Z,101446.22
2022-09-20T18:14:25.814Z,101448.06
2022-09-20T18:17:01.556Z,101451.38
2022-09-20T18:19:36.222Z,101452.19
2022-09-20T18:22:04.597Z,101453.00
2022-09-20T18:24:32.630Z,101444.53
2022-09-20T18:27:01.280Z,101449.47
2022-09-20T18:29:31.628Z,101455.22
2022-09-20T18:32:00.379Z,101456.03
2022-09-20T18:34:33.772Z,101465.78
2022-09-20T18:37:04.005Z,101469.81
2022-09-20T18:39:33.377Z,101466.53
2022-09-20T18:42:02.858Z,101468.94
2022-09-20T18:44:34.402Z,101470.00
2022-09-20T18:47:03.216Z,101478.91
2022-09-20T18:49:31.430Z,101473.75
2022-09-20T18:51:58.985Z,101475.88
2022-09-20T18:54:30.606Z,101478.34
2022-09-20T18:56:58.234Z,101477.84
2022-09-20T18:59:27.937Z,101482.44
2022-09-20T19:02:20.146Z,101481.31
2022-09-20T19:05:21.155Z,101482.63
2022-09-20T19:08:20.541Z,101489.09
2022-09-20T19:11:00.161Z,101494.78
2022-09-20T19:13:36.701Z,101487.59
2022-09-20T19:16:18.960Z,101499.63
2022-09-20T19:19:25.203Z,101488.53
2022-09-20T19:22:13.769Z,101498.47
2022-09-20T19:24:42.525Z,101493.72
2022-09-20T19:27:15.620Z,101499.38
2022-09-20T19:29:44.421Z,101504.16
2022-09-20T19:32:21.757Z,101503.34
2022-09-20T19:34:56.261Z,101508.78
2022-09-20T19:37:45.373Z,101505.41
2022-09-20T19:40:39.868Z,101506.97
2022-09-20T19:43:18.381Z,101506.41
2022-09-20T19:46:17.710Z,101511.91
2022-09-20T19:49:08.556Z,101511.41
2022-09-20T19:51:42.201Z,101518.25
2022-09-20T19:54:16.321Z,101515.94
2022-09-20T19:56:59.862Z,101519.69
2022-09-20T19:59:38.115Z,101523.13
2022-09-20T20:02:14.832Z,101520.16
2022-09-20T20:04:44.439Z,101524.56
2022-09-20T20:07:28.234Z,101525.19
2022-09-20T20:10:14.139Z,101524.25
2022-09-20T20:13:39.509Z,101520.69
2022-09-20T20:16:17.566Z,101526.97
2022-09-20T20:19:33.017Z,101529.44
2022-09-20T20:22:30.594Z,101532.16
2022-09-20T20:25:05.410Z,101531.69
2022-09-20T20:27:39.973Z,101528.75
2022-09-20T20:30:18.530Z,101529.81
2022-09-20T20:32:52.259Z,101534.22
2022-09-20T20:35:28.131Z,101536.13
2022-09-20T20:37:58.345Z,101537.50
2022-09-20T20:40:38.204Z,101541.63
2022-09-20T20:43:12.079Z,101541.56
2022-09-20T20:45:40.587Z,101537.75
2022-09-20T20:48:08.031Z,101537.84
2022-09-20T20:50:35.777Z,101539.75
2022-09-20T20:53:03.204Z,101538.22
2022-09-20T20:55:31.733Z,101547.97
2022-09-20T20:58:02.046Z,101547.75
2022-09-20T21:00:30.803Z,101552.59
2022-09-20T21:03:02.200Z,101555.53
2022-09-20T21:05:38.098Z,101555.53
2022-09-20T21:08:18.598Z,101554.13
2022-09-20T21:10:56.127Z,101555.19
2022-09-20T21:13:44.549Z,101564.06
2022-09-20T21:16:19.764Z,101561.16
2022-09-20T21:18:52.053Z,101561.16
2022-09-20T21:21:27.047Z,101563.03
2022-09-20T21:24:05.990Z,101563.50
2022-09-20T21:26:41.086Z,101559.31
2022-09-20T21:29:21.430Z,101561.91
2022-09-20T21:32:08.263Z,101556.94
2022-09-20T21:34:42.706Z,101565.63
2022-09-20T21:37:15.207Z,101560.59
2022-09-20T21:39:44.516Z,101564.97
2022-09-20T21:42:19.611Z,101557.91
2022-09-20T21:44:56.903Z,101558.00
2022-09-20T21:47:32.608Z,101546.69
2022-09-20T21:50:03.420Z,101556.69
2022-09-20T21:52:36.342Z,101555.06
2022-09-20T21:55:11.590Z,101546.69
2022-09-20T21:57:45.519Z,101546.47
2022-09-20T22:00:23.811Z,101538.31
2022-09-20T22:03:07.139Z,101540.69
2022-09-20T22:05:44.378Z,101548.56
2022-09-20T22:08:22.078Z,101537.97
2022-09-20T22:11:01.713Z,101540.91
2022-09-20T22:13:38.671Z,101537.41
2022-09-20T22:16:22.161Z,101529.88
2022-09-20T22:18:53.558Z,101525.25
2022-09-20T22:21:35.423Z,101522.31
2022-09-20T22:24:17.273Z,101520.69
2022-09-20T22:26:55.205Z,101521.16
2022-09-20T22:29:37.679Z,101525.50
2022-09-20T22:32:12.065Z,101526.81
2022-09-20T22:34:42.768Z,101528.22
2022-09-20T22:37:16.223Z,101527.38
2022-09-20T22:39:50.051Z,101519.25
2022-09-20T22:42:27.397Z,101533.66
2022-09-20T22:45:04.622Z,101537.41
2022-09-20T22:47:41.586Z,101541.16
2022-09-20T22:50:34.032Z,101537.03
2022-09-20T22:53:07.914Z,101538.00
2022-09-20T22:55:42.304Z,101533.63
2022-09-20T22:58:17.919Z,101537.97
2022-09-20T23:00:49.789Z,101542.78
2022-09-20T23:03:31.457Z,101548.19
2022-09-20T23:06:01.509Z,101536.53
2022-09-20T23:08:38.188Z,101535.94
2022-09-20T23:11:15.160Z,101523.34
2022-09-20T23:13:47.975Z,101528.03
2022-09-20T23:16:26.633Z,101518.84
2022-09-20T23:19:05.063Z,101525.09
2022-09-20T23:21:34.795Z,101524.63
2022-09-20T23:24:05.107Z,101515.56
2022-09-20T23:26:35.017Z,101512.25
2022-09-20T23:29:04.422Z,101505.38
2022-09-20T23:31:35.109Z,101502.44
2022-09-20T23:34:05.323Z,101509.50
2022-09-20T23:36:36.443Z,101507.84
2022-09-20T23:39:04.717Z,101502.66
2022-09-20T23:41:34.550Z,101496.06
2022-09-20T23:44:05.190Z,101504.88
2022-09-20T23:46:33.612Z,101501.94
2022-09-20T23:49:01.713Z,101501.47
2022-09-20T23:51:30.993Z,101493.84
2022-09-20T23:53:59.937Z,101490.03
2022-09-20T23:56:29.779Z,101485.09
2022-09-20T23:58:59.762Z,101489.06
